Ashdown, Arkansas
Current Conditions -  °F | °C
As of 6:53 PM on Wednesday 22 Oct 2014 (Local Time) from KTXK Reporting Station
Clear Clear  
Wind Chill: 65°   Ceiling: Unl
Heat Index: 65°   Visibility: 10mi
Dew Point: 53°   Wind: 3mph
Humidity: 65%   Direction: 60°ENE
Pressure: 30.13"   Gusts: NA
Location:  33.67°N, 94.13°W
Report Text: KTXK 222353Z 06003KT 10SM CLR 18/12 A3013 RMK AO2 SLP199 T01830117 10244 20183 53003
Loading
Personal Weather Stations






























Interactive Weather Map
Tropical Storm Tracking
New forecast layout! Learn more

10-Day Weather Forecast

Advertisements
Track Severe Weather on mobile